Time;durP1;ratioP1;P1;durP2;ratioP2;P2;SDS_P1;SDS_P2;PMS_P1;PMS_P2;Temp;Humidity;BMP_temperature;BMP_pressure;BME280_temperature;BME280_humidity;BME280_pressure;Samples;Min_cycle;Max_cycle;Signal;HPM_P1;HPM_P2
2023/01/22 00:02:02;;;;;;;28.48;13.88;;;;;;;;;;5069730;28;20373;-57
2023/01/22 00:04:28;;;;;;;29.92;13.68;;;;;;;;;;5070814;28;20692;-58
2023/01/22 00:06:54;;;;;;;28.73;13.43;;;;;;;;;;5068921;28;20033;-57
2023/01/22 00:09:21;;;;;;;27.17;13.18;;;;;;;;;;5070094;28;20130;-57
2023/01/22 00:11:47;;;;;;;27.67;13.18;;;;;;;;;;5068252;28;20037;-58
2023/01/22 00:14:13;;;;;;;28.30;13.43;;;;;;;;;;5068580;28;20044;-56
2023/01/22 00:16:40;;;;;;;27.40;13.30;;;;;;;;;;5068670;28;20062;-58
2023/01/22 00:19:05;;;;;;;29.60;13.73;;;;;;;;;;5068748;28;20381;-59
2023/01/22 00:21:31;;;;;;;25.85;13.80;;;;;;;;;;5071295;28;20047;-58
2023/01/22 00:23:56;;;;;;;25.90;12.80;;;;;;;;;;5066967;28;20028;-57
2023/01/22 00:26:22;;;;;;;29.05;14.35;;;;;;;;;;5080392;28;20438;-58
2023/01/22 00:28:47;;;;;;;28.60;12.75;;;;;;;;;;5063525;28;20033;-56
2023/01/22 00:31:14;;;;;;;25.65;13.10;;;;;;;;;;5063961;28;20050;-57
2023/01/22 00:33:40;;;;;;;25.80;13.02;;;;;;;;;;5071104;28;20051;-55
2023/01/22 00:36:08;;;;;;;29.05;13.75;;;;;;;;;;5084504;28;20043;-54
2023/01/22 00:38:34;;;;;;;26.52;12.65;;;;;;;;;;5068499;28;20044;-58
2023/01/22 00:41:01;;;;;;;26.50;13.27;;;;;;;;;;5057563;28;20478;-57
2023/01/22 00:43:26;;;;;;;26.27;13.00;;;;;;;;;;5064917;28;20042;-53
2023/01/22 00:45:52;;;;;;;24.63;12.43;;;;;;;;;;5066731;28;20032;-61
2023/01/22 00:48:17;;;;;;;26.10;12.55;;;;;;;;;;5070307;28;20436;-59
2023/01/22 00:50:43;;;;;;;26.98;12.77;;;;;;;;;;5072597;28;20428;-59
2023/01/22 00:53:08;;;;;;;27.13;13.20;;;;;;;;;;5066459;28;20040;-56
2023/01/22 00:55:33;;;;;;;24.63;12.63;;;;;;;;;;5070530;28;20473;-58
2023/01/22 00:57:59;;;;;;;25.63;12.05;;;;;;;;;;5068093;28;20075;-57
2023/01/22 01:00:24;;;;;;;23.55;12.57;;;;;;;;;;5069275;28;20052;-58
2023/01/22 01:05:33;;;;;;;26.48;12.57;;;;;;;;;;5070050;28;20082;-57
2023/01/22 01:07:59;;;;;;;25.73;11.88;;;;;;;;;;5061703;28;20036;-57
2023/01/22 01:10:24;;;;;;;24.30;12.45;;;;;;;;;;5070610;28;20029;-59
2023/01/22 01:12:50;;;;;;;23.60;12.15;;;;;;;;;;5070798;28;20112;-56
2023/01/22 01:15:15;;;;;;;24.33;12.95;;;;;;;;;;5076905;28;20043;-59
2023/01/22 01:17:40;;;;;;;24.30;11.70;;;;;;;;;;5069491;28;20434;-55
2023/01/22 01:20:06;;;;;;;24.38;12.25;;;;;;;;;;5067682;28;20032;-57
2023/01/22 01:22:32;;;;;;;21.08;11.43;;;;;;;;;;5070137;28;20476;-56
2023/01/22 01:24:57;;;;;;;24.50;11.60;;;;;;;;;;5072470;28;20025;-58
2023/01/22 01:27:23;;;;;;;25.10;12.35;;;;;;;;;;5070239;28;20451;-58
2023/01/22 01:29:48;;;;;;;23.20;11.93;;;;;;;;;;5078466;28;20044;-55
2023/01/22 01:32:13;;;;;;;20.05;10.80;;;;;;;;;;5071022;28;20155;-59
2023/01/22 01:34:39;;;;;;;22.30;11.55;;;;;;;;;;5071026;28;20033;-57
2023/01/22 01:37:04;;;;;;;21.92;11.00;;;;;;;;;;5069121;28;20107;-58
2023/01/22 01:39:29;;;;;;;22.20;11.93;;;;;;;;;;5066259;28;20029;-57
2023/01/22 01:41:55;;;;;;;23.17;11.27;;;;;;;;;;5062994;28;20094;-59
2023/01/22 01:44:22;;;;;;;19.75;11.23;;;;;;;;;;5068855;28;20450;-57
2023/01/22 01:47:00;;;;;;;21.65;10.90;;;;;;;;;;5071955;28;20040;-57
2023/01/22 01:49:31;;;;;;;19.70;10.70;;;;;;;;;;5072420;28;20024;-56
2023/01/22 01:52:05;;;;;;;;;;;;;;;;;;5073457;28;20025;-60
2023/01/22 01:54:31;;;;;;;24.25;10.85;;;;;;;;;;5072841;28;19923;-58
2023/01/22 01:57:03;;;;;;;20.52;10.93;;;;;;;;;;5073103;28;20028;-59
2023/01/22 01:59:32;;;;;;;18.55;10.43;;;;;;;;;;5071815;28;20440;-56
2023/01/22 02:02:00;;;;;;;21.65;10.57;;;;;;;;;;5071921;28;20033;-61
2023/01/22 02:04:26;;;;;;;19.58;10.32;;;;;;;;;;5069640;28;20453;-58
2023/01/22 02:06:51;;;;;;;19.73;10.63;;;;;;;;;;5071784;28;20117;-58
2023/01/22 02:09:17;;;;;;;20.65;10.10;;;;;;;;;;5070817;28;20024;-57
2023/01/22 02:11:42;;;;;;;21.98;11.05;;;;;;;;;;5071150;28;20397;-57
2023/01/22 02:14:15;;;;;;;20.98;10.65;;;;;;;;;;5073310;28;20036;-56
2023/01/22 02:16:41;;;;;;;21.48;11.20;;;;;;;;;;5071798;28;20067;-58
2023/01/22 02:19:07;;;;;;;20.17;10.75;;;;;;;;;;5071565;28;20059;-58
2023/01/22 02:21:41;;;;;;;16.70;9.55;;;;;;;;;;5081354;28;20385;-56
2023/01/22 02:24:10;;;;;;;20.50;10.15;;;;;;;;;;5073312;28;20475;-62
2023/01/22 02:26:36;;;;;;;18.45;9.75;;;;;;;;;;5080535;28;20032;-55
2023/01/22 02:29:02;;;;;;;18.05;9.70;;;;;;;;;;5083618;28;20495;-57
2023/01/22 02:31:28;;;;;;;19.60;9.80;;;;;;;;;;5071646;28;20032;-57
2023/01/22 02:33:53;;;;;;;16.92;9.52;;;;;;;;;;5081985;28;20073;-58
2023/01/22 02:36:20;;;;;;;17.98;10.13;;;;;;;;;;5074918;28;20077;-58
2023/01/22 02:38:45;;;;;;;16.10;8.95;;;;;;;;;;5082167;28;20037;-56
2023/01/22 02:41:11;;;;;;;18.33;9.98;;;;;;;;;;5073750;28;20044;-59
2023/01/22 02:43:36;;;;;;;16.58;9.20;;;;;;;;;;5072371;28;20056;-58
2023/01/22 02:46:02;;;;;;;17.40;9.43;;;;;;;;;;5072379;28;20031;-60
2023/01/22 02:48:27;;;;;;;17.23;8.90;;;;;;;;;;5071051;28;20487;-59
2023/01/22 02:50:52;;;;;;;18.27;9.88;;;;;;;;;;5073121;28;20060;-57
2023/01/22 02:53:18;;;;;;;18.73;10.00;;;;;;;;;;5070003;28;20122;-58
2023/01/22 02:55:45;;;;;;;17.15;9.40;;;;;;;;;;5076154;28;20036;-56
2023/01/22 02:58:10;;;;;;;17.70;8.95;;;;;;;;;;5071535;28;20061;-58
2023/01/22 03:00:36;;;;;;;18.67;9.02;;;;;;;;;;5072365;28;20036;-60
2023/01/22 03:03:06;;;;;;;18.63;9.85;;;;;;;;;;5070751;28;20032;-60
2023/01/22 03:05:34;;;;;;;19.63;9.77;;;;;;;;;;5068176;28;20527;-59
2023/01/22 03:08:00;;;;;;;17.80;9.02;;;;;;;;;;5069432;28;20036;-59
2023/01/22 03:10:25;;;;;;;16.90;9.10;;;;;;;;;;5070956;28;20021;-55
2023/01/22 03:21:11;;;;;;;18.33;9.85;;;;;;;;;;5091336;28;20043;-57
2023/01/22 03:23:37;;;;;;;20.40;9.75;;;;;;;;;;5075211;28;20033;-57
2023/01/22 03:26:03;;;;;;;17.45;9.75;;;;;;;;;;5069717;28;20036;-59
2023/01/22 03:28:28;;;;;;;18.77;10.50;;;;;;;;;;5068592;28;20654;-57
2023/01/22 03:30:54;;;;;;;19.08;10.02;;;;;;;;;;5071842;28;20090;-57
2023/01/22 03:33:20;;;;;;;20.05;10.32;;;;;;;;;;5070545;28;20818;-57
2023/01/22 03:35:45;;;;;;;17.25;9.85;;;;;;;;;;5071565;28;20029;-58
2023/01/22 03:38:10;;;;;;;21.10;10.80;;;;;;;;;;5066470;28;20085;-62
2023/01/22 03:40:36;;;;;;;18.77;10.02;;;;;;;;;;5078030;28;20158;-57
2023/01/22 03:43:01;;;;;;;21.95;10.57;;;;;;;;;;5065719;28;20039;-59
2023/01/22 03:45:27;;;;;;;21.40;11.05;;;;;;;;;;5092124;28;20490;-59
2023/01/22 03:47:53;;;;;;;21.30;10.38;;;;;;;;;;5076958;28;20040;-60
2023/01/22 03:50:18;;;;;;;20.20;10.57;;;;;;;;;;5071312;28;20457;-57
2023/01/22 03:52:44;;;;;;;19.80;10.80;;;;;;;;;;5079111;28;20024;-57
2023/01/22 03:55:09;;;;;;;20.95;10.77;;;;;;;;;;5070141;28;20457;-57
2023/01/22 03:57:34;;;;;;;20.23;10.90;;;;;;;;;;5071737;28;20032;-57
2023/01/22 04:00:01;;;;;;;20.90;11.05;;;;;;;;;;5069808;28;20047;-58
2023/01/22 04:02:27;;;;;;;20.98;11.40;;;;;;;;;;5068374;28;20475;-58
2023/01/22 04:04:53;;;;;;;20.60;10.90;;;;;;;;;;5068762;28;20534;-57
2023/01/22 04:07:18;;;;;;;22.70;11.68;;;;;;;;;;5068324;28;20037;-57
2023/01/22 04:09:44;;;;;;;24.50;11.30;;;;;;;;;;5054093;28;20073;-56
2023/01/22 04:12:10;;;;;;;20.77;10.50;;;;;;;;;;5059246;28;20465;-56
2023/01/22 04:14:35;;;;;;;23.73;10.88;;;;;;;;;;5051935;28;20029;-56
2023/01/22 04:17:01;;;;;;;23.98;11.60;;;;;;;;;;5068158;28;20033;-55
2023/01/22 04:19:26;;;;;;;21.83;11.32;;;;;;;;;;5070138;28;20044;-58
2023/01/22 04:21:51;;;;;;;20.25;10.35;;;;;;;;;;5069859;28;20058;-57
2023/01/22 04:24:17;;;;;;;20.67;10.90;;;;;;;;;;5069090;28;20024;-58
2023/01/22 04:26:42;;;;;;;22.13;11.05;;;;;;;;;;5068794;28;20078;-58
2023/01/22 04:29:08;;;;;;;22.63;10.98;;;;;;;;;;5069812;28;20037;-60
2023/01/22 04:31:34;;;;;;;22.23;11.48;;;;;;;;;;5072632;28;20081;-58
2023/01/22 04:33:59;;;;;;;22.25;11.20;;;;;;;;;;5087280;28;20036;-57
2023/01/22 04:36:25;;;;;;;20.38;11.07;;;;;;;;;;5068707;28;20036;-58
2023/01/22 04:38:50;;;;;;;20.95;10.68;;;;;;;;;;5071670;28;20453;-58
2023/01/22 04:41:16;;;;;;;21.80;11.38;;;;;;;;;;5068900;28;20040;-57
2023/01/22 04:43:41;;;;;;;20.48;10.48;;;;;;;;;;5072665;28;20040;-57
2023/01/22 04:46:06;;;;;;;20.10;10.98;;;;;;;;;;5076092;28;20032;-60
2023/01/22 04:48:32;;;;;;;21.85;10.90;;;;;;;;;;5074133;28;20482;-57
2023/01/22 04:50:57;;;;;;;22.35;10.98;;;;;;;;;;5074454;28;20027;-54
2023/01/22 04:53:23;;;;;;;24.38;11.27;;;;;;;;;;5075388;28;20037;-57
2023/01/22 04:55:48;;;;;;;21.45;11.00;;;;;;;;;;5069798;28;20036;-57
2023/01/22 04:58:13;;;;;;;21.95;10.60;;;;;;;;;;5068952;28;20111;-58
2023/01/22 05:00:39;;;;;;;21.77;10.68;;;;;;;;;;5068396;28;20067;-59
2023/01/22 05:03:05;;;;;;;21.98;11.25;;;;;;;;;;5068012;28;21579;-58
2023/01/22 05:05:32;;;;;;;21.35;11.38;;;;;;;;;;5069531;28;20024;-55
2023/01/22 05:07:58;;;;;;;23.63;11.02;;;;;;;;;;5068446;28;20037;-58
2023/01/22 05:10:24;;;;;;;21.67;10.88;;;;;;;;;;5068324;28;20036;-56
2023/01/22 05:12:50;;;;;;;22.02;11.07;;;;;;;;;;5069406;28;20036;-54
2023/01/22 05:15:16;;;;;;;22.50;11.20;;;;;;;;;;5077430;28;20481;-56
2023/01/22 05:17:41;;;;;;;21.27;10.80;;;;;;;;;;5049729;28;20033;-58
2023/01/22 05:20:08;;;;;;;20.48;10.45;;;;;;;;;;5069313;28;20036;-60
2023/01/22 05:22:33;;;;;;;19.98;10.48;;;;;;;;;;5089660;28;20024;-56
2023/01/22 05:24:58;;;;;;;21.60;10.68;;;;;;;;;;5073961;28;20380;-57
2023/01/22 05:27:24;;;;;;;22.30;10.20;;;;;;;;;;5094060;28;20028;-56
2023/01/22 05:29:49;;;;;;;19.75;10.60;;;;;;;;;;5095529;28;20035;-58
2023/01/22 05:32:14;;;;;;;19.27;10.68;;;;;;;;;;5071608;28;20453;-57
2023/01/22 05:34:40;;;;;;;19.70;10.90;;;;;;;;;;5075158;28;20028;-58
2023/01/22 05:37:06;;;;;;;21.27;10.75;;;;;;;;;;5077567;28;20063;-57
2023/01/22 05:39:31;;;;;;;20.77;10.45;;;;;;;;;;5073930;28;20054;-58
2023/01/22 05:41:56;;;;;;;21.42;11.13;;;;;;;;;;5073573;28;20040;-56
2023/01/22 05:44:22;;;;;;;20.55;9.68;;;;;;;;;;5074043;28;20036;-59
2023/01/22 05:46:47;;;;;;;19.85;9.70;;;;;;;;;;5059183;28;20112;-59
2023/01/22 05:49:13;;;;;;;20.25;10.38;;;;;;;;;;5053838;28;20029;-58
2023/01/22 05:51:38;;;;;;;18.13;9.55;;;;;;;;;;5068709;28;20051;-58
2023/01/22 05:54:04;;;;;;;21.23;9.95;;;;;;;;;;5074780;28;20028;-57
2023/01/22 05:56:30;;;;;;;19.92;9.80;;;;;;;;;;5087861;28;20062;-58
2023/01/22 05:58:56;;;;;;;19.27;9.95;;;;;;;;;;5090947;28;20037;-60
2023/01/22 06:01:21;;;;;;;20.63;9.98;;;;;;;;;;5085352;28;20097;-57
2023/01/22 06:03:46;;;;;;;17.80;9.35;;;;;;;;;;5069892;28;20060;-59
2023/01/22 06:06:13;;;;;;;19.30;10.77;;;;;;;;;;5084077;28;20460;-60
2023/01/22 06:08:40;;;;;;;19.20;9.65;;;;;;;;;;5094062;28;20500;-58
2023/01/22 06:11:14;;;;;;;18.70;9.90;;;;;;;;;;5082037;28;20074;-59
2023/01/22 06:13:39;;;;;;;20.15;10.15;;;;;;;;;;5071955;28;20024;-60
2023/01/22 06:16:05;;;;;;;22.35;11.27;;;;;;;;;;5089471;28;20032;-59
2023/01/22 06:18:31;;;;;;;19.90;10.43;;;;;;;;;;5072269;28;20032;-59
2023/01/22 06:21:03;;;;;;;19.73;9.93;;;;;;;;;;5074430;28;20367;-58
2023/01/22 06:23:28;;;;;;;19.13;10.13;;;;;;;;;;5077395;28;20040;-58
2023/01/22 06:25:55;;;;;;;19.05;10.50;;;;;;;;;;5093183;28;20103;-58
2023/01/22 06:28:21;;;;;;;20.75;10.00;;;;;;;;;;5087959;28;20033;-58
2023/01/22 06:30:47;;;;;;;20.27;10.45;;;;;;;;;;5073809;28;20039;-59
2023/01/22 06:33:12;;;;;;;20.40;10.70;;;;;;;;;;5074598;28;20119;-58
2023/01/22 06:35:38;;;;;;;19.48;10.43;;;;;;;;;;5089666;28;20031;-58
2023/01/22 06:38:03;;;;;;;19.67;10.80;;;;;;;;;;5072617;28;20047;-58
2023/01/22 06:40:29;;;;;;;19.95;10.13;;;;;;;;;;5072603;28;20029;-59
2023/01/22 06:42:56;;;;;;;22.30;10.90;;;;;;;;;;5089702;28;20469;-59
2023/01/22 06:45:22;;;;;;;19.33;10.02;;;;;;;;;;5092739;28;20357;-58
2023/01/22 06:47:47;;;;;;;19.65;10.45;;;;;;;;;;5075518;28;20045;-58
2023/01/22 06:50:13;;;;;;;17.92;9.88;;;;;;;;;;5087166;28;20024;-61
2023/01/22 06:52:38;;;;;;;18.13;10.02;;;;;;;;;;5086441;28;20036;-57
2023/01/22 06:55:04;;;;;;;20.90;10.10;;;;;;;;;;5092468;28;20116;-58
2023/01/22 06:57:30;;;;;;;20.80;10.52;;;;;;;;;;5085569;28;20034;-59
2023/01/22 06:59:55;;;;;;;19.35;9.93;;;;;;;;;;5072373;28;20040;-58
2023/01/22 07:02:20;;;;;;;21.48;10.02;;;;;;;;;;5070572;28;20025;-58
2023/01/22 07:04:46;;;;;;;18.15;10.18;;;;;;;;;;5067517;28;20029;-58
2023/01/22 07:07:11;;;;;;;20.13;9.90;;;;;;;;;;5087438;28;20116;-56
2023/01/22 07:09:37;;;;;;;21.35;10.73;;;;;;;;;;5071190;28;20457;-58
2023/01/22 07:12:02;;;;;;;20.17;9.23;;;;;;;;;;5073240;28;20035;-59
2023/01/22 07:14:29;;;;;;;21.88;10.13;;;;;;;;;;5092384;28;20442;-56
2023/01/22 07:16:55;;;;;;;18.20;9.93;;;;;;;;;;5092914;28;20387;-60
2023/01/22 07:19:20;;;;;;;20.25;10.43;;;;;;;;;;5070610;28;20112;-55
2023/01/22 07:21:46;;;;;;;18.15;9.48;;;;;;;;;;5082561;28;20027;-58
2023/01/22 07:24:11;;;;;;;18.42;9.73;;;;;;;;;;5086092;28;20064;-58
2023/01/22 07:26:37;;;;;;;19.33;10.00;;;;;;;;;;5072057;28;20084;-57
2023/01/22 07:29:03;;;;;;;17.35;9.60;;;;;;;;;;5071994;28;20028;-57
2023/01/22 07:31:29;;;;;;;20.83;9.43;;;;;;;;;;5071594;28;20039;-58
2023/01/22 07:33:54;;;;;;;18.70;9.57;;;;;;;;;;5071717;28;20035;-56
2023/01/22 07:36:19;;;;;;;18.05;9.52;;;;;;;;;;5067124;28;20179;-58
2023/01/22 07:38:45;;;;;;;18.05;8.85;;;;;;;;;;5052780;28;20126;-60
2023/01/22 07:41:10;;;;;;;17.63;8.80;;;;;;;;;;5057031;28;20125;-59
2023/01/22 07:43:35;;;;;;;20.10;10.55;;;;;;;;;;5070589;28;20489;-57
2023/01/22 07:46:03;;;;;;;20.10;8.93;;;;;;;;;;5080053;28;20032;-58
2023/01/22 07:48:29;;;;;;;18.63;9.30;;;;;;;;;;5091763;28;20028;-58
2023/01/22 07:50:59;;;;;;;17.98;9.57;;;;;;;;;;5083620;28;20457;-56
2023/01/22 07:53:24;;;;;;;16.77;9.13;;;;;;;;;;5071617;28;20067;-58
2023/01/22 07:55:49;;;;;;;18.60;9.30;;;;;;;;;;5078828;28;20055;-58
2023/01/22 07:58:15;;;;;;;18.55;9.77;;;;;;;;;;5080615;28;20488;-59
2023/01/22 08:00:40;;;;;;;16.77;9.23;;;;;;;;;;5062827;28;20039;-57
2023/01/22 08:03:09;;;;;;;17.17;9.25;;;;;;;;;;5076616;28;20082;-59
2023/01/22 08:05:37;;;;;;;17.48;9.32;;;;;;;;;;5070927;28;20415;-58
2023/01/22 08:08:03;;;;;;;18.83;9.68;;;;;;;;;;5054613;28;20523;-60
2023/01/22 08:10:29;;;;;;;18.05;9.30;;;;;;;;;;5065715;28;20025;-60
2023/01/22 08:12:55;;;;;;;18.73;9.90;;;;;;;;;;5071855;28;20032;-61
2023/01/22 08:15:20;;;;;;;20.02;10.32;;;;;;;;;;5070098;28;20040;-62
2023/01/22 08:17:48;;;;;;;16.65;9.38;;;;;;;;;;5058652;28;20040;-59
2023/01/22 08:20:14;;;;;;;18.40;9.75;;;;;;;;;;5059627;28;20031;-61
2023/01/22 08:22:39;;;;;;;17.20;9.35;;;;;;;;;;5079393;28;20037;-61
2023/01/22 08:25:05;;;;;;;17.13;9.35;;;;;;;;;;5069771;28;20024;-61
2023/01/22 08:27:33;;;;;;;20.08;9.98;;;;;;;;;;5068729;28;20409;-61
2023/01/22 08:29:59;;;;;;;20.60;9.32;;;;;;;;;;5075649;28;20036;-60
2023/01/22 08:32:25;;;;;;;18.25;9.90;;;;;;;;;;5065793;28;20024;-61
2023/01/22 08:34:53;;;;;;;16.02;8.77;;;;;;;;;;5069364;28;20512;-61
2023/01/22 08:37:19;;;;;;;20.77;10.00;;;;;;;;;;5068908;28;20598;-61
2023/01/22 08:39:45;;;;;;;17.58;9.93;;;;;;;;;;5071874;28;20389;-61
2023/01/22 08:42:10;;;;;;;19.75;10.40;;;;;;;;;;5067641;28;20032;-61
2023/01/22 08:44:35;;;;;;;17.98;10.00;;;;;;;;;;5068338;28;20035;-64
2023/01/22 08:47:01;;;;;;;19.25;10.25;;;;;;;;;;5070808;28;20025;-62
2023/01/22 08:49:29;;;;;;;18.60;10.25;;;;;;;;;;5069158;28;20392;-62
2023/01/22 08:51:54;;;;;;;19.95;10.70;;;;;;;;;;5071392;28;20032;-61
2023/01/22 08:54:20;;;;;;;22.00;12.50;;;;;;;;;;5081740;28;20081;-60
2023/01/22 08:56:46;;;;;;;22.92;11.02;;;;;;;;;;5069965;28;20033;-60
2023/01/22 08:59:12;;;;;;;20.45;11.00;;;;;;;;;;5070367;28;20093;-58
2023/01/22 09:01:38;;;;;;;21.45;12.15;;;;;;;;;;5070534;28;20727;-60
2023/01/22 09:04:06;;;;;;;25.27;12.73;;;;;;;;;;5069868;28;20033;-58
2023/01/22 09:06:32;;;;;;;21.23;11.52;;;;;;;;;;5064199;28;20024;-58
2023/01/22 09:08:58;;;;;;;22.05;11.90;;;;;;;;;;5071436;28;20483;-59
2023/01/22 09:11:23;;;;;;;18.95;10.25;;;;;;;;;;5080509;28;20036;-59
2023/01/22 09:13:49;;;;;;;26.23;12.48;;;;;;;;;;5075655;28;20029;-58
2023/01/22 09:16:15;;;;;;;21.08;11.75;;;;;;;;;;5070880;28;20397;-57
2023/01/22 09:18:40;;;;;;;19.77;10.50;;;;;;;;;;5084194;28;20059;-58
2023/01/22 09:21:07;;;;;;;22.70;12.07;;;;;;;;;;5091206;28;20388;-57
2023/01/22 09:23:32;;;;;;;20.98;10.90;;;;;;;;;;5080317;28;20141;-59
2023/01/22 09:25:59;;;;;;;19.10;10.48;;;;;;;;;;5070808;28;20476;-58
2023/01/22 09:28:24;;;;;;;18.20;10.23;;;;;;;;;;5080879;28;20032;-61
2023/01/22 09:30:50;;;;;;;19.67;10.57;;;;;;;;;;5091085;28;20035;-59
2023/01/22 09:33:15;;;;;;;20.85;10.73;;;;;;;;;;5088080;28;20056;-58
2023/01/22 09:35:41;;;;;;;20.27;11.20;;;;;;;;;;5090402;28;20036;-58
2023/01/22 09:38:07;;;;;;;18.25;10.45;;;;;;;;;;5077005;28;20024;-58
2023/01/22 09:40:58;;;;;;;19.83;10.43;;;;;;;;;;5068397;28;20028;-59
2023/01/22 09:43:24;;;;;;;22.42;10.88;;;;;;;;;;5070132;28;20037;-59
2023/01/22 09:45:53;;;;;;;23.42;10.30;;;;;;;;;;5069706;28;20394;-56
2023/01/22 09:48:18;;;;;;;22.52;11.88;;;;;;;;;;5070457;28;20047;-58
2023/01/22 09:50:45;;;;;;;22.15;10.82;;;;;;;;;;5070304;28;20461;-57
2023/01/22 09:53:16;;;;;;;21.58;10.80;;;;;;;;;;5071431;28;20039;-56
2023/01/22 09:55:45;;;;;;;22.55;11.02;;;;;;;;;;5070114;28;20032;-58
2023/01/22 09:58:19;;;;;;;23.85;12.82;;;;;;;;;;5070478;28;20039;-54
2023/01/22 10:00:56;;;;;;;25.98;12.35;;;;;;;;;;5069647;28;20079;-57
2023/01/22 10:03:27;;;;;;;18.00;9.90;;;;;;;;;;5070608;28;20035;-58
2023/01/22 10:06:14;;;;;;;25.52;13.32;;;;;;;;;;5069872;28;20043;-55
2023/01/22 10:09:08;;;;;;;25.52;13.02;;;;;;;;;;5073097;28;20473;-59
2023/01/22 10:11:35;;;;;;;25.45;12.75;;;;;;;;;;5073732;28;20031;-57
2023/01/22 10:14:04;;;;;;;22.00;11.98;;;;;;;;;;5073839;28;20119;-58
2023/01/22 10:16:30;;;;;;;23.45;13.10;;;;;;;;;;5072226;28;20157;-60
2023/01/22 10:19:15;;;;;;;27.63;13.90;;;;;;;;;;5074318;28;20034;-58
2023/01/22 10:21:47;;;;;;;27.15;14.27;;;;;;;;;;5072420;28;20469;-58
2023/01/22 10:24:12;;;;;;;24.73;13.85;;;;;;;;;;5073773;28;20075;-58
2023/01/22 10:26:44;;;;;;;26.35;13.98;;;;;;;;;;5073480;28;20048;-57
2023/01/22 10:29:28;;;;;;;22.48;11.68;;;;;;;;;;5073787;28;20453;-58
2023/01/22 10:31:56;;;;;;;24.85;13.18;;;;;;;;;;5073617;28;20039;-58
2023/01/22 10:34:31;;;;;;;23.52;12.63;;;;;;;;;;5074163;28;20032;-58
2023/01/22 10:37:15;;;;;;;21.52;11.45;;;;;;;;;;5074108;28;20029;-58
2023/01/22 10:39:49;;;;;;;20.50;11.27;;;;;;;;;;5072735;28;20470;-58
2023/01/22 10:42:21;;;;;;;18.70;10.05;;;;;;;;;;5072623;28;20427;-57
2023/01/22 10:44:47;;;;;;;21.58;11.15;;;;;;;;;;5072904;28;20056;-57
2023/01/22 10:47:21;;;;;;;26.25;13.65;;;;;;;;;;5072337;28;20059;-56
2023/01/22 10:49:48;;;;;;;24.90;14.07;;;;;;;;;;5062685;28;20585;-56
2023/01/22 10:52:22;;;;;;;27.48;13.65;;;;;;;;;;5053402;28;20044;-58
2023/01/22 10:54:55;;;;;;;27.13;14.20;;;;;;;;;;5052406;28;20653;-55
2023/01/22 10:57:30;;;;;;;34.25;17.70;;;;;;;;;;5052362;28;20043;-56
2023/01/22 11:00:14;;;;;;;27.67;14.63;;;;;;;;;;5064227;28;20098;-55
2023/01/22 11:02:41;;;;;;;24.60;13.57;;;;;;;;;;5072482;28;20028;-55
2023/01/22 11:05:20;;;;;;;31.10;15.50;;;;;;;;;;5073011;28;20055;-56
2023/01/22 11:08:15;;;;;;;27.48;13.85;;;;;;;;;;5072575;28;20052;-52
2023/01/22 11:10:59;;;;;;;24.35;13.35;;;;;;;;;;5070173;28;20051;-55
2023/01/22 11:13:24;;;;;;;29.20;14.35;;;;;;;;;;5073138;28;20427;-55
2023/01/22 11:16:15;;;;;;;30.83;14.93;;;;;;;;;;5072599;28;20029;-57
2023/01/22 11:19:03;;;;;;;24.23;12.88;;;;;;;;;;5071253;28;20042;-55
2023/01/22 11:21:33;;;;;;;25.58;13.07;;;;;;;;;;5052776;28;20040;-58
2023/01/22 11:24:13;;;;;;;23.92;12.77;;;;;;;;;;5054442;28;20032;-57
2023/01/22 11:27:11;;;;;;;23.20;11.98;;;;;;;;;;5071404;28;20469;-59
2023/01/22 11:29:55;;;;;;;22.08;11.07;;;;;;;;;;5071330;28;20485;-59
2023/01/22 11:32:42;;;;;;;21.98;11.77;;;;;;;;;;5070018;28;20448;-59
2023/01/22 11:35:18;;;;;;;22.65;11.88;;;;;;;;;;5059935;28;20115;-59
2023/01/22 11:38:13;;;;;;;21.95;11.52;;;;;;;;;;5070669;28;20431;-58
2023/01/22 11:40:57;;;;;;;24.92;11.93;;;;;;;;;;5048062;28;20129;-59
2023/01/22 11:43:41;;;;;;;23.75;12.05;;;;;;;;;;5069020;28;20488;-58
2023/01/22 11:46:19;;;;;;;22.65;12.02;;;;;;;;;;5071398;28;20086;-59
2023/01/22 11:49:05;;;;;;;23.05;11.63;;;;;;;;;;5059154;28;20451;-56
2023/01/22 11:51:54;;;;;;;23.25;11.50;;;;;;;;;;5053776;28;20033;-59
2023/01/22 11:54:35;;;;;;;21.35;12.02;;;;;;;;;;5070059;28;20173;-56
2023/01/22 11:57:14;;;;;;;25.48;13.90;;;;;;;;;;5071003;28;20040;-56
2023/01/22 11:59:46;;;;;;;23.30;12.77;;;;;;;;;;5068628;28;20106;-57
2023/01/22 12:02:42;;;;;;;22.23;13.00;;;;;;;;;;5071928;28;20389;-59
2023/01/22 12:05:10;;;;;;;25.00;12.77;;;;;;;;;;5070998;28;20063;-57
2023/01/22 12:07:54;;;;;;;24.42;12.68;;;;;;;;;;5071711;28;20039;-57
2023/01/22 12:10:48;;;;;;;21.52;12.13;;;;;;;;;;5070339;28;20030;-59
2023/01/22 12:13:52;;;;;;;21.98;12.40;;;;;;;;;;5069521;28;20040;-59
2023/01/22 12:16:39;;;;;;;22.73;12.18;;;;;;;;;;5069326;28;20032;-59
2023/01/22 12:19:22;;;;;;;19.73;11.20;;;;;;;;;;5068213;28;20036;-57
2023/01/22 12:21:56;;;;;;;22.83;12.50;;;;;;;;;;5068871;28;20032;-59
2023/01/22 12:24:22;;;;;;;23.75;12.27;;;;;;;;;;5070722;28;20461;-60
2023/01/22 12:26:55;;;;;;;22.65;11.77;;;;;;;;;;5068275;28;20031;-59
2023/01/22 12:29:48;;;;;;;20.48;12.40;;;;;;;;;;5070580;28;20039;-60
2023/01/22 12:32:17;;;;;;;24.60;13.23;;;;;;;;;;5070900;28;20028;-60
2023/01/22 12:34:52;;;;;;;25.10;14.05;;;;;;;;;;5069924;28;20033;-61
2023/01/22 12:37:22;;;;;;;26.50;13.93;;;;;;;;;;5068475;28;20085;-60
2023/01/22 12:40:08;;;;;;;25.95;13.68;;;;;;;;;;5069544;28;20035;-61
2023/01/22 12:42:39;;;;;;;22.77;12.80;;;;;;;;;;5051313;28;20041;-60
2023/01/22 12:45:16;;;;;;;;;;;;;;;;;;5070680;28;20036;-59
2023/01/22 12:47:49;;;;;;;23.35;12.05;;;;;;;;;;5069126;28;20283;-61
2023/01/22 12:50:20;;;;;;;23.73;12.25;;;;;;;;;;5060071;28;20028;-60
2023/01/22 12:52:56;;;;;;;;;;;;;;;;;;5049895;28;20029;-61
2023/01/22 12:55:29;;;;;;;22.25;11.70;;;;;;;;;;5061385;28;19923;-61
2023/01/22 12:57:55;;;;;;;23.23;12.82;;;;;;;;;;5069726;28;20481;-62
2023/01/22 13:00:30;;;;;;;24.70;13.30;;;;;;;;;;5070013;28;20507;-61
2023/01/22 13:02:57;;;;;;;25.33;13.38;;;;;;;;;;5069310;28;20485;-62
2023/01/22 13:05:25;;;;;;;24.67;13.02;;;;;;;;;;5069550;28;20129;-62
2023/01/22 13:08:21;;;;;;;24.60;13.68;;;;;;;;;;5067440;28;20033;-61
2023/01/22 13:10:56;;;;;;;25.60;13.68;;;;;;;;;;5068684;28;20127;-62
2023/01/22 13:13:50;;;;;;;24.48;12.98;;;;;;;;;;5068659;28;20043;-61
2023/01/22 13:16:19;;;;;;;26.23;13.25;;;;;;;;;;5051186;28;20500;-61
2023/01/22 13:18:54;;;;;;;25.70;14.07;;;;;;;;;;5064818;28;20089;-61
2023/01/22 13:21:29;;;;;;;28.25;14.13;;;;;;;;;;5069437;28;20044;-61
2023/01/22 13:24:11;;;;;;;39.65;13.60;;;;;;;;;;5069274;28;20493;-61
2023/01/22 13:26:37;;;;;;;31.23;15.05;;;;;;;;;;5069876;28;20119;-62
2023/01/22 13:29:17;;;;;;;25.48;13.93;;;;;;;;;;5068794;28;20032;-61
2023/01/22 13:31:57;;;;;;;25.67;13.15;;;;;;;;;;5068745;28;20094;-62
2023/01/22 13:34:23;;;;;;;31.07;14.43;;;;;;;;;;5068372;28;20469;-61
2023/01/22 13:36:50;;;;;;;27.27;14.40;;;;;;;;;;5068697;28;20742;-62
2023/01/22 13:39:19;;;;;;;27.85;14.13;;;;;;;;;;5068293;28;20108;-61
2023/01/22 13:41:49;;;;;;;28.05;13.82;;;;;;;;;;5064837;28;20040;-61
2023/01/22 13:44:19;;;;;;;33.45;16.55;;;;;;;;;;5072445;28;20040;-62
2023/01/22 13:46:44;;;;;;;28.15;14.85;;;;;;;;;;5072937;28;20044;-61
2023/01/22 13:49:19;;;;;;;27.10;13.80;;;;;;;;;;5073094;28;20032;-61
2023/01/22 13:51:45;;;;;;;28.08;13.82;;;;;;;;;;5072656;28;20066;-61
2023/01/22 13:54:19;;;;;;;27.65;14.02;;;;;;;;;;5073116;28;20354;-61
2023/01/22 13:56:45;;;;;;;26.23;13.55;;;;;;;;;;5073223;28;20040;-61
2023/01/22 13:59:23;;;;;;;27.83;14.15;;;;;;;;;;5074948;28;20031;-61
2023/01/22 14:01:49;;;;;;;31.45;14.05;;;;;;;;;;5071789;28;20062;-61
2023/01/22 14:04:34;;;;;;;27.13;13.43;;;;;;;;;;5065180;28;20534;-61
2023/01/22 14:07:00;;;;;;;27.50;13.80;;;;;;;;;;5072883;28;20511;-60
2023/01/22 14:09:36;;;;;;;24.98;14.07;;;;;;;;;;5072595;28;20111;-60
2023/01/22 14:12:17;;;;;;;27.45;13.82;;;;;;;;;;5070701;28;20040;-60
2023/01/22 14:14:43;;;;;;;30.90;14.30;;;;;;;;;;5072450;28;20040;-59
2023/01/22 14:17:29;;;;;;;27.58;14.07;;;;;;;;;;5074376;28;20020;-58
2023/01/22 14:19:56;;;;;;;25.27;12.75;;;;;;;;;;5073539;28;20038;-57
2023/01/22 14:22:22;;;;;;;27.13;13.25;;;;;;;;;;5073301;28;20082;-59
2023/01/22 14:24:51;;;;;;;28.20;13.60;;;;;;;;;;5069087;28;20094;-59
2023/01/22 14:27:37;;;;;;;24.55;13.38;;;;;;;;;;5072314;28;20044;-56
2023/01/22 14:30:03;;;;;;;23.95;13.27;;;;;;;;;;5072231;28;20487;-57
2023/01/22 14:32:29;;;;;;;25.90;13.38;;;;;;;;;;5074053;28;20032;-58
2023/01/22 14:34:54;;;;;;;26.55;13.85;;;;;;;;;;5073030;28;20028;-58
2023/01/22 14:37:20;;;;;;;25.20;13.02;;;;;;;;;;5072601;28;20484;-58
2023/01/22 14:39:45;;;;;;;24.98;12.75;;;;;;;;;;5068180;28;20071;-54
2023/01/22 14:42:11;;;;;;;25.77;12.80;;;;;;;;;;5072951;28;20417;-58
2023/01/22 14:44:36;;;;;;;29.75;14.32;;;;;;;;;;5076596;28;20032;-59